createdAt,value
2022-10-07T00:01:10.886Z,6.64
2022-10-07T00:03:39.160Z,6.62
2022-10-07T00:06:15.838Z,6.62
2022-10-07T00:08:47.080Z,6.58
2022-10-07T00:11:23.868Z,6.55
2022-10-07T00:13:55.169Z,6.50
2022-10-07T00:16:32.262Z,6.47
2022-10-07T00:19:02.812Z,6.45
2022-10-07T00:21:33.441Z,6.44
2022-10-07T00:24:01.760Z,6.44
2022-10-07T00:26:31.833Z,6.46
2022-10-07T00:28:59.716Z,6.44
2022-10-07T00:31:30.287Z,6.45
2022-10-07T00:33:59.427Z,6.45
2022-10-07T00:36:33.758Z,6.44
2022-10-07T00:39:05.243Z,6.46
2022-10-07T00:41:39.707Z,6.47
2022-10-07T00:44:32.496Z,6.46
2022-10-07T00:47:14.453Z,6.45
2022-10-07T00:50:07.511Z,6.41
2022-10-07T00:52:40.511Z,6.38
2022-10-07T00:55:12.516Z,6.37
2022-10-07T00:57:42.138Z,6.38
2022-10-07T01:00:11.754Z,6.35
2022-10-07T01:02:39.957Z,6.34
2022-10-07T01:05:14.350Z,6.32
2022-10-07T01:07:43.563Z,6.30
2022-10-07T01:10:12.869Z,6.27
2022-10-07T01:12:59.562Z,6.25
2022-10-07T01:16:17.450Z,6.20
2022-10-07T01:19:00.420Z,6.16
2022-10-07T01:22:02.012Z,6.14
2022-10-07T01:24:42.679Z,6.12
2022-10-07T01:27:18.236Z,6.12
2022-10-07T01:29:56.252Z,6.10
2022-10-07T01:32:36.991Z,6.07
2022-10-07T01:35:14.039Z,6.08
2022-10-07T01:37:48.555Z,6.10
2022-10-07T01:40:22.065Z,6.11
2022-10-07T01:42:52.182Z,6.12
2022-10-07T01:45:22.399Z,6.13
2022-10-07T01:47:51.858Z,6.12
2022-10-07T01:50:25.654Z,6.10
2022-10-07T01:53:35.322Z,6.09
2022-10-07T01:56:22.725Z,6.07
2022-10-07T01:59:13.785Z,6.07
2022-10-07T02:01:58.881Z,6.05
2022-10-07T02:04:45.564Z,6.04
2022-10-07T02:07:48.678Z,6.03
2022-10-07T02:10:28.147Z,6.01
2022-10-07T02:13:04.963Z,5.99
2022-10-07T02:15:40.879Z,5.96
2022-10-07T02:18:14.929Z,5.95
2022-10-07T02:20:47.453Z,5.95
2022-10-07T02:23:18.249Z,5.93
2022-10-07T02:25:48.822Z,5.90
2022-10-07T02:28:21.785Z,5.88
2022-10-07T02:30:55.771Z,5.87
2022-10-07T02:33:27.893Z,5.86
2022-10-07T02:36:08.089Z,5.86
2022-10-07T02:38:35.846Z,5.86
2022-10-07T02:41:33.713Z,5.85
2022-10-07T02:44:07.675Z,5.83
2022-10-07T02:46:46.629Z,5.82
2022-10-07T02:49:18.405Z,5.80
2022-10-07T02:51:53.237Z,5.77
2022-10-07T02:54:31.850Z,5.74
2022-10-07T02:57:02.073Z,5.72
2022-10-07T02:59:32.190Z,5.72
2022-10-07T03:02:03.988Z,5.71
2022-10-07T03:04:32.324Z,5.70
2022-10-07T03:07:01.374Z,5.68
2022-10-07T03:09:30.819Z,5.65
2022-10-07T03:11:58.563Z,5.64
2022-10-07T03:14:26.447Z,5.64
2022-10-07T03:16:54.320Z,5.63
2022-10-07T03:19:22.085Z,5.59
2022-10-07T03:21:50.761Z,5.55
2022-10-07T03:24:18.911Z,5.52
2022-10-07T03:26:47.108Z,5.49
2022-10-07T03:29:15.283Z,5.47
2022-10-07T03:31:43.154Z,5.45
2022-10-07T03:34:11.317Z,5.42
2022-10-07T03:36:39.498Z,5.39
2022-10-07T03:39:07.265Z,5.38
2022-10-07T03:41:35.122Z,5.36
2022-10-07T03:44:03.193Z,5.34
2022-10-07T03:46:31.122Z,5.33
2022-10-07T03:48:59.473Z,5.31
2022-10-07T03:51:27.300Z,5.29
2022-10-07T03:53:57.703Z,5.27
2022-10-07T03:56:25.795Z,5.26
2022-10-07T03:58:53.561Z,5.25
2022-10-07T04:01:21.776Z,5.23
2022-10-07T04:03:49.802Z,5.20
2022-10-07T04:06:18.181Z,5.18
2022-10-07T04:08:45.939Z,5.18
2022-10-07T04:11:13.703Z,5.18
2022-10-07T04:13:41.468Z,5.16
2022-10-07T04:16:10.712Z,5.13
2022-10-07T04:18:39.348Z,5.12
2022-10-07T04:21:07.113Z,5.11
2022-10-07T04:23:36.227Z,5.09
2022-10-07T04:26:09.551Z,5.08
2022-10-07T04:28:38.224Z,5.09
2022-10-07T04:31:09.042Z,5.09
2022-10-07T04:33:41.284Z,5.06
2022-10-07T04:36:10.998Z,5.06
2022-10-07T04:38:38.763Z,5.06
2022-10-07T04:41:07.522Z,5.05
2022-10-07T04:43:35.311Z,5.03
2022-10-07T04:46:13.893Z,5.02
2022-10-07T04:48:45.938Z,4.99
2022-10-07T04:51:16.082Z,4.97
2022-10-07T04:53:44.389Z,4.98
2022-10-07T04:56:12.250Z,4.95
2022-10-07T04:58:39.937Z,4.94
2022-10-07T05:01:10.121Z,4.94
2022-10-07T05:03:40.061Z,4.95
2022-10-07T05:06:08.889Z,4.95
2022-10-07T05:08:37.259Z,4.94
2022-10-07T05:11:05.180Z,4.93
2022-10-07T05:13:34.492Z,4.94
2022-10-07T05:16:03.895Z,4.95
2022-10-07T05:18:33.587Z,4.95
2022-10-07T05:21:06.807Z,4.99
2022-10-07T05:23:36.889Z,5.00
2022-10-07T05:26:08.231Z,5.01
2022-10-07T05:28:37.776Z,5.04
2022-10-07T05:31:08.347Z,5.07
2022-10-07T05:33:37.118Z,5.10
2022-10-07T05:36:08.012Z,5.10
2022-10-07T05:38:36.993Z,5.14
2022-10-07T05:41:07.360Z,5.16
2022-10-07T05:43:38.251Z,5.19
2022-10-07T05:46:08.576Z,5.24
2022-10-07T05:48:39.541Z,5.30
2022-10-07T05:51:08.819Z,5.39
2022-10-07T05:53:36.990Z,5.48
2022-10-07T05:56:09.150Z,5.54
2022-10-07T05:58:37.280Z,5.62
2022-10-07T06:01:12.900Z,5.73
2022-10-07T06:03:43.202Z,5.84
2022-10-07T06:06:11.306Z,5.93
2022-10-07T06:08:39.051Z,6.04
2022-10-07T06:11:26.346Z,6.15
2022-10-07T06:13:55.235Z,6.27
2022-10-07T06:16:24.454Z,6.37
2022-10-07T06:18:53.705Z,6.49
2022-10-07T06:21:28.335Z,6.60
2022-10-07T06:23:58.532Z,6.73
2022-10-07T06:26:26.544Z,6.85
2022-10-07T06:28:54.263Z,6.97
2022-10-07T06:31:24.837Z,7.09
2022-10-07T06:33:53.555Z,7.20
2022-10-07T06:36:21.493Z,7.31
2022-10-07T06:38:51.094Z,7.43
2022-10-07T06:41:21.417Z,7.55
2022-10-07T06:43:49.795Z,7.67
2022-10-07T06:46:20.198Z,7.79
2022-10-07T06:48:48.093Z,7.93
2022-10-07T06:51:21.318Z,8.06
2022-10-07T06:53:54.858Z,8.20
2022-10-07T06:56:23.731Z,8.34
2022-10-07T06:58:51.748Z,8.47
2022-10-07T07:01:19.624Z,8.62
2022-10-07T07:03:47.838Z,8.76
2022-10-07T07:06:15.844Z,8.91
2022-10-07T07:08:46.476Z,9.04
2022-10-07T07:11:33.487Z,9.19
2022-10-07T07:14:02.594Z,9.35
2022-10-07T07:16:31.347Z,9.48
2022-10-07T07:19:02.695Z,9.62
2022-10-07T07:21:30.993Z,9.77
2022-10-07T07:23:59.678Z,9.90
2022-10-07T07:26:28.342Z,10.04
2022-10-07T07:28:59.543Z,10.17
2022-10-07T07:31:29.242Z,10.32
2022-10-07T07:34:01.073Z,10.47
2022-10-07T07:36:31.088Z,10.64
2022-10-07T07:39:02.036Z,10.80
2022-10-07T07:41:32.907Z,10.94
2022-10-07T07:44:04.073Z,11.09
2022-10-07T07:46:39.087Z,11.24
2022-10-07T07:49:07.209Z,11.37
2022-10-07T07:51:35.075Z,11.51
2022-10-07T07:54:03.252Z,11.63
2022-10-07T07:56:33.885Z,11.72
2022-10-07T07:59:02.571Z,11.83
2022-10-07T08:01:33.313Z,11.98
2022-10-07T08:04:03.208Z,12.11
2022-10-07T08:06:31.649Z,12.25
2022-10-07T08:08:59.676Z,12.38
2022-10-07T08:11:28.852Z,12.50
2022-10-07T08:13:57.231Z,12.63
2022-10-07T08:16:27.391Z,12.77
2022-10-07T08:18:56.852Z,12.91
2022-10-07T08:21:28.098Z,13.04
2022-10-07T08:23:58.527Z,13.16
2022-10-07T08:26:31.377Z,13.32
2022-10-07T08:29:00.603Z,13.42
2022-10-07T08:31:29.402Z,13.51
2022-10-07T08:33:59.836Z,13.65
2022-10-07T08:36:29.627Z,13.75
2022-10-07T08:38:57.496Z,13.84
2022-10-07T08:41:34.475Z,13.89
2022-10-07T08:44:10.394Z,13.94
2022-10-07T08:46:49.147Z,14.01
2022-10-07T08:49:21.750Z,14.14
2022-10-07T08:51:58.607Z,14.22
2022-10-07T08:54:30.873Z,14.32
2022-10-07T08:57:12.560Z,14.42
2022-10-07T08:59:47.791Z,14.49
2022-10-07T09:02:29.924Z,14.55
2022-10-07T09:05:33.729Z,14.59
2022-10-07T09:08:06.760Z,14.68
2022-10-07T09:10:49.915Z,14.77
2022-10-07T09:13:26.224Z,14.88
2022-10-07T09:16:01.607Z,14.95
2022-10-07T09:18:40.207Z,15.01
2022-10-07T09:21:16.859Z,15.10
2022-10-07T09:23:46.628Z,15.15
2022-10-07T09:26:17.557Z,15.17
2022-10-07T09:28:45.473Z,15.21
2022-10-07T09:31:15.573Z,15.28
2022-10-07T09:33:50.419Z,15.32
2022-10-07T09:36:19.261Z,15.36
2022-10-07T09:38:50.197Z,15.40
2022-10-07T09:41:25.766Z,15.47
2022-10-07T09:44:00.943Z,15.55
2022-10-07T09:46:40.961Z,15.58
2022-10-07T09:49:38.488Z,15.67
2022-10-07T09:52:22.711Z,15.78
2022-10-07T09:54:53.891Z,15.82
2022-10-07T09:57:24.719Z,15.76
2022-10-07T10:00:12.766Z,15.73
2022-10-07T10:02:45.704Z,15.72
2022-10-07T10:05:24.155Z,15.76
2022-10-07T10:08:18.443Z,15.80
2022-10-07T10:10:58.197Z,15.85
2022-10-07T10:13:31.790Z,15.98
2022-10-07T10:16:00.258Z,16.07
2022-10-07T10:18:33.046Z,16.14
2022-10-07T10:21:30.730Z,16.26
2022-10-07T10:24:14.465Z,16.38
2022-10-07T10:27:04.742Z,16.47
2022-10-07T10:29:59.470Z,16.56
2022-10-07T10:32:39.496Z,16.63
2022-10-07T10:35:07.261Z,16.67
2022-10-07T10:37:40.866Z,16.72
2022-10-07T10:40:27.970Z,16.81
2022-10-07T10:43:13.752Z,16.84
2022-10-07T10:46:08.763Z,16.91
2022-10-07T10:49:02.885Z,16.99
2022-10-07T10:51:45.431Z,17.02
2022-10-07T10:54:39.010Z,17.03
2022-10-07T10:57:45.375Z,17.06
2022-10-07T11:00:15.802Z,17.11
2022-10-07T11:02:43.900Z,17.10
2022-10-07T11:05:28.532Z,17.17
2022-10-07T11:08:02.115Z,17.27
2022-10-07T11:10:36.452Z,17.35
2022-10-07T11:13:13.431Z,17.40
2022-10-07T11:16:09.963Z,17.46
2022-10-07T11:19:03.946Z,17.51
2022-10-07T11:21:46.403Z,17.58
2022-10-07T11:24:25.402Z,17.66
2022-10-07T11:27:03.488Z,17.73
2022-10-07T11:29:31.269Z,17.79
2022-10-07T11:32:11.094Z,17.85
2022-10-07T11:34:56.263Z,17.91
2022-10-07T11:37:30.187Z,17.97
2022-10-07T11:39:57.975Z,18.02
2022-10-07T11:42:34.020Z,18.04
2022-10-07T11:45:09.555Z,18.08
2022-10-07T11:47:43.239Z,18.12
2022-10-07T11:50:19.910Z,18.15
2022-10-07T11:52:51.477Z,18.16
2022-10-07T11:55:34.486Z,18.13
2022-10-07T11:58:04.518Z,18.13
2022-10-07T12:00:35.344Z,18.14
2022-10-07T12:03:18.688Z,18.18
2022-10-07T12:05:49.500Z,18.21
2022-10-07T12:08:30.162Z,18.24
2022-10-07T12:11:13.185Z,18.28
2022-10-07T12:13:50.837Z,18.23
2022-10-07T12:16:24.531Z,18.25
2022-10-07T12:19:06.493Z,18.29
2022-10-07T12:21:59.499Z,18.34
2022-10-07T12:24:28.556Z,18.32
2022-10-07T12:26:58.747Z,18.32
2022-10-07T12:29:35.730Z,18.31
2022-10-07T12:32:04.911Z,18.32
2022-10-07T12:34:40.540Z,18.33
2022-10-07T12:37:40.487Z,18.37
2022-10-07T12:40:18.288Z,18.40
2022-10-07T12:42:53.624Z,18.41
2022-10-07T12:45:25.570Z,18.43
2022-10-07T12:47:57.889Z,18.44
2022-10-07T12:50:27.256Z,18.45
2022-10-07T12:52:58.000Z,18.48
2022-10-07T12:55:39.486Z,18.52
2022-10-07T12:58:57.122Z,18.53
2022-10-07T13:01:43.798Z,18.55
2022-10-07T13:04:23.864Z,18.58
2022-10-07T13:07:20.819Z,18.61
2022-10-07T13:10:03.783Z,18.61
2022-10-07T13:12:46.569Z,18.61
2022-10-07T13:15:58.650Z,18.63
2022-10-07T13:18:40.035Z,18.63
2022-10-07T13:21:25.537Z,18.67
2022-10-07T13:23:54.400Z,18.68
2022-10-07T13:26:24.215Z,18.63
2022-10-07T13:28:55.866Z,18.63
2022-10-07T13:31:30.712Z,18.65
2022-10-07T13:34:02.045Z,18.66
2022-10-07T13:36:34.942Z,18.63
2022-10-07T13:39:23.377Z,18.63
2022-10-07T13:41:57.310Z,18.63
2022-10-07T13:44:32.214Z,18.62
2022-10-07T13:47:02.436Z,18.61
2022-10-07T13:49:40.169Z,18.62
2022-10-07T13:52:21.224Z,18.60
2022-10-07T13:54:52.961Z,18.57
2022-10-07T13:57:21.924Z,18.57
2022-10-07T13:59:51.973Z,18.57
2022-10-07T14:02:20.665Z,18.51
2022-10-07T14:04:59.667Z,18.50
2022-10-07T14:07:29.272Z,18.49
2022-10-07T14:10:00.151Z,18.48
2022-10-07T14:12:35.781Z,18.47
2022-10-07T14:15:23.409Z,18.44
2022-10-07T14:18:00.498Z,18.40
2022-10-07T14:20:32.760Z,18.38
2022-10-07T14:23:05.580Z,18.35
2022-10-07T14:25:50.604Z,18.33
2022-10-07T14:28:24.602Z,18.24
2022-10-07T14:31:23.665Z,18.18
2022-10-07T14:34:31.949Z,18.14
2022-10-07T14:37:01.626Z,18.07
2022-10-07T14:39:36.072Z,18.00
2022-10-07T14:42:06.473Z,17.91
2022-10-07T14:44:35.539Z,17.84
2022-10-07T14:47:04.459Z,17.75
2022-10-07T14:49:32.428Z,17.67
2022-10-07T14:52:01.116Z,17.59
2022-10-07T14:54:28.936Z,17.52
2022-10-07T14:56:56.848Z,17.47
2022-10-07T14:59:24.814Z,17.43
2022-10-07T15:01:52.685Z,17.38
2022-10-07T15:04:20.631Z,17.35
2022-10-07T15:06:51.056Z,17.31
2022-10-07T15:09:19.037Z,17.24
2022-10-07T15:11:47.009Z,17.19
2022-10-07T15:14:15.108Z,17.11
2022-10-07T15:16:43.197Z,17.04
2022-10-07T15:19:11.221Z,16.96
2022-10-07T15:21:39.092Z,16.87
2022-10-07T15:24:07.362Z,16.78
2022-10-07T15:26:35.274Z,16.68
2022-10-07T15:29:03.198Z,16.57
2022-10-07T15:31:31.089Z,16.48
2022-10-07T15:33:59.779Z,16.40
2022-10-07T15:36:29.555Z,16.30
2022-10-07T15:39:02.279Z,16.18
2022-10-07T15:41:35.062Z,16.05
2022-10-07T15:44:06.191Z,15.93
2022-10-07T15:46:35.214Z,15.80
2022-10-07T15:49:04.649Z,15.69
2022-10-07T15:51:32.576Z,15.58
2022-10-07T15:54:00.593Z,15.47
2022-10-07T15:56:28.673Z,15.36
2022-10-07T15:58:58.596Z,15.25
2022-10-07T16:01:29.109Z,15.13
2022-10-07T16:03:58.140Z,15.01
2022-10-07T16:06:30.667Z,14.89
2022-10-07T16:08:59.461Z,14.79
2022-10-07T16:11:29.001Z,14.66
2022-10-07T16:13:59.514Z,14.54
2022-10-07T16:16:28.532Z,14.42
2022-10-07T16:18:58.288Z,14.31
2022-10-07T16:21:32.810Z,14.19
2022-10-07T16:24:06.008Z,14.07
2022-10-07T16:26:35.998Z,13.94
2022-10-07T16:29:26.000Z,13.83
2022-10-07T16:31:58.415Z,13.70
2022-10-07T16:34:30.869Z,13.59
2022-10-07T16:36:59.329Z,13.50
2022-10-07T16:39:27.702Z,13.41
2022-10-07T16:41:56.669Z,13.33
2022-10-07T16:44:25.018Z,13.23
2022-10-07T16:46:57.094Z,13.16
2022-10-07T16:49:27.842Z,13.11
2022-10-07T16:51:56.765Z,13.07
2022-10-07T16:54:25.332Z,13.03
2022-10-07T16:56:53.632Z,12.99
2022-10-07T16:59:26.193Z,12.95
2022-10-07T17:01:56.170Z,12.93
2022-10-07T17:04:25.528Z,12.91
2022-10-07T17:06:54.252Z,12.90
2022-10-07T17:09:24.822Z,12.88
2022-10-07T17:11:52.821Z,12.87
2022-10-07T17:14:22.037Z,12.87
2022-10-07T17:16:53.236Z,12.86
2022-10-07T17:19:24.021Z,12.86
2022-10-07T17:21:53.881Z,12.86
2022-10-07T17:24:23.282Z,12.85
2022-10-07T17:26:55.356Z,12.86
2022-10-07T17:29:26.692Z,12.86
2022-10-07T17:31:55.096Z,12.86
2022-10-07T17:34:23.576Z,12.85
2022-10-07T17:36:51.520Z,12.83
2022-10-07T17:39:19.575Z,12.82
2022-10-07T17:41:47.830Z,12.80
2022-10-07T17:44:16.654Z,12.78
2022-10-07T17:46:44.579Z,12.76
2022-10-07T17:49:15.766Z,12.73
2022-10-07T17:51:44.211Z,12.71
2022-10-07T17:54:14.771Z,12.68
2022-10-07T17:56:44.599Z,12.67
2022-10-07T17:59:12.665Z,12.65
2022-10-07T18:01:41.745Z,12.65
2022-10-07T18:04:17.909Z,12.65
2022-10-07T18:06:49.052Z,12.66
2022-10-07T18:09:19.332Z,12.66
2022-10-07T18:12:05.808Z,12.67
2022-10-07T18:14:53.999Z,12.66
2022-10-07T18:17:23.140Z,12.65
2022-10-07T18:19:50.941Z,12.65
2022-10-07T18:22:19.588Z,12.64
2022-10-07T18:24:47.530Z,12.65
2022-10-07T18:27:15.710Z,12.65
2022-10-07T18:29:43.517Z,12.67
2022-10-07T18:32:11.280Z,12.66
2022-10-07T18:34:39.255Z,12.65
2022-10-07T18:37:07.058Z,12.66
2022-10-07T18:39:34.847Z,12.66
2022-10-07T18:42:04.633Z,12.66
2022-10-07T18:44:33.121Z,12.66
2022-10-07T18:47:01.081Z,12.64
2022-10-07T18:49:29.149Z,12.62
2022-10-07T18:51:56.987Z,12.60
2022-10-07T18:54:24.822Z,12.57
2022-10-07T18:56:53.057Z,12.53
2022-10-07T18:59:20.939Z,12.51
2022-10-07T19:01:50.918Z,12.50
2022-10-07T19:04:20.305Z,12.50
2022-10-07T19:06:48.584Z,12.49
2022-10-07T19:09:21.507Z,12.48
2022-10-07T19:11:49.938Z,12.47
2022-10-07T19:14:18.291Z,12.43
2022-10-07T19:16:49.587Z,12.41
2022-10-07T19:19:20.432Z,12.39
2022-10-07T19:21:51.578Z,12.36
2022-10-07T19:24:20.695Z,12.33
2022-10-07T19:26:50.090Z,12.33
2022-10-07T19:29:18.253Z,12.32
2022-10-07T19:31:51.092Z,12.31
2022-10-07T19:34:23.042Z,12.29
2022-10-07T19:36:51.222Z,12.26
2022-10-07T19:39:21.892Z,12.23
2022-10-07T19:41:51.410Z,12.20
2022-10-07T19:44:19.307Z,12.18
2022-10-07T19:46:50.813Z,12.16
2022-10-07T19:49:18.782Z,12.15
2022-10-07T19:51:46.704Z,12.13
2022-10-07T19:54:14.748Z,12.13
2022-10-07T19:56:42.583Z,12.13
2022-10-07T19:59:12.599Z,12.13
2022-10-07T20:01:43.465Z,12.10
2022-10-07T20:04:13.516Z,12.10
2022-10-07T20:06:42.521Z,12.08
2022-10-07T20:09:13.000Z,12.07
2022-10-07T20:11:40.939Z,12.06
2022-10-07T20:14:10.229Z,12.07
2022-10-07T20:16:39.230Z,12.07
2022-10-07T20:19:11.601Z,12.07
2022-10-07T20:21:39.686Z,12.05
2022-10-07T20:24:08.753Z,12.05
2022-10-07T20:26:38.730Z,12.05
2022-10-07T20:29:10.467Z,12.06
2022-10-07T20:31:41.035Z,12.07
2022-10-07T20:34:14.540Z,12.06
2022-10-07T20:36:42.936Z,12.06
2022-10-07T20:39:39.687Z,12.07
2022-10-07T20:42:22.459Z,12.10
2022-10-07T20:44:51.431Z,12.11
2022-10-07T20:47:21.921Z,12.11
2022-10-07T20:49:51.670Z,12.11
2022-10-07T20:52:22.870Z,12.09
2022-10-07T20:54:52.028Z,12.08
2022-10-07T20:57:23.048Z,12.09
2022-10-07T20:59:50.899Z,12.07
2022-10-07T21:02:20.923Z,12.06
2022-10-07T21:04:48.868Z,12.06
2022-10-07T21:07:18.166Z,12.05
2022-10-07T21:09:46.738Z,12.02
2022-10-07T21:12:17.162Z,12.01
2022-10-07T21:14:48.068Z,11.99
2022-10-07T21:17:17.145Z,11.99
2022-10-07T21:19:45.163Z,11.99
2022-10-07T21:22:13.100Z,11.99
2022-10-07T21:24:41.003Z,12.00
2022-10-07T21:27:09.230Z,11.99
2022-10-07T21:29:40.679Z,11.97
2022-10-07T21:32:12.052Z,11.94
2022-10-07T21:34:40.349Z,11.90
2022-10-07T21:37:08.420Z,11.89
2022-10-07T21:39:36.326Z,11.89
2022-10-07T21:42:04.357Z,11.87
2022-10-07T21:44:33.597Z,11.85
2022-10-07T21:47:01.534Z,11.83
2022-10-07T21:49:29.725Z,11.83
2022-10-07T21:51:57.866Z,11.83
2022-10-07T21:54:26.311Z,11.83
2022-10-07T21:56:54.115Z,11.82
2022-10-07T21:59:21.975Z,11.82
2022-10-07T22:01:49.940Z,11.81
2022-10-07T22:04:19.154Z,11.81
2022-10-07T22:07:05.648Z,11.83
2022-10-07T22:09:33.833Z,11.85
2022-10-07T22:12:01.679Z,11.85
2022-10-07T22:14:29.578Z,11.85
2022-10-07T22:16:57.719Z,11.87
2022-10-07T22:19:25.685Z,11.88
2022-10-07T22:21:53.552Z,11.90
2022-10-07T22:24:21.933Z,11.88
2022-10-07T22:26:52.050Z,11.89
2022-10-07T22:29:21.758Z,11.90
2022-10-07T22:31:50.238Z,11.92
2022-10-07T22:34:36.724Z,11.97
2022-10-07T22:37:06.271Z,11.97
2022-10-07T22:39:34.288Z,11.98
2022-10-07T22:42:03.875Z,11.98
2022-10-07T22:44:31.925Z,11.97
2022-10-07T22:46:59.973Z,11.99
2022-10-07T22:49:30.288Z,12.01
2022-10-07T22:52:00.189Z,12.02
2022-10-07T22:54:29.477Z,12.01
2022-10-07T22:56:57.362Z,11.99
2022-10-07T22:59:25.325Z,12.00
2022-10-07T23:01:53.596Z,11.99
2022-10-07T23:04:21.805Z,11.96
2022-10-07T23:06:49.969Z,11.96
2022-10-07T23:09:18.209Z,11.96
2022-10-07T23:11:46.221Z,11.95
2022-10-07T23:14:14.028Z,11.93
2022-10-07T23:16:42.537Z,11.91
2022-10-07T23:19:10.505Z,11.89
2022-10-07T23:21:38.515Z,11.86
2022-10-07T23:24:08.294Z,11.84
2022-10-07T23:26:37.402Z,11.80
2022-10-07T23:29:05.804Z,11.79
2022-10-07T23:31:33.990Z,11.76
2022-10-07T23:34:03.222Z,11.75
2022-10-07T23:36:31.818Z,11.72
2022-10-07T23:39:00.906Z,11.69
2022-10-07T23:41:30.807Z,11.67
2022-10-07T23:44:00.840Z,11.66
2022-10-07T23:46:33.224Z,11.66
2022-10-07T23:49:01.606Z,11.64
2022-10-07T23:51:32.427Z,11.63
2022-10-07T23:54:03.098Z,11.62
2022-10-07T23:56:31.827Z,11.62
2022-10-07T23:59:00.826Z,11.62
